sensor_id;sensor_type;location;lat;lon;timestamp;temperature;humidity
84902;DHT22;75166;51.198;6.010;2024-03-07T00:00:15;10.40;71.30
84902;DHT22;75166;51.198;6.010;2024-03-07T00:02:43;10.40;71.30
84902;DHT22;75166;51.198;6.010;2024-03-07T00:05:09;10.40;71.30
84902;DHT22;75166;51.198;6.010;2024-03-07T00:07:35;10.40;71.20
84902;DHT22;75166;51.198;6.010;2024-03-07T00:10:01;10.40;71.20
84902;DHT22;75166;51.198;6.010;2024-03-07T00:12:28;10.40;71.10
84902;DHT22;75166;51.198;6.010;2024-03-07T00:14:55;10.40;71.20
84902;DHT22;75166;51.198;6.010;2024-03-07T00:17:21;10.40;71.30
84902;DHT22;75166;51.198;6.010;2024-03-07T00:19:48;10.30;71.30
84902;DHT22;75166;51.198;6.010;2024-03-07T00:22:15;10.30;71.40
84902;DHT22;75166;51.198;6.010;2024-03-07T00:24:40;10.30;71.50
84902;DHT22;75166;51.198;6.010;2024-03-07T00:27:08;10.30;71.50
84902;DHT22;75166;51.198;6.010;2024-03-07T00:29:33;10.20;71.40
84902;DHT22;75166;51.198;6.010;2024-03-07T00:32:03;10.30;71.50
84902;DHT22;75166;51.198;6.010;2024-03-07T00:34:29;10.20;71.50
84902;DHT22;75166;51.198;6.010;2024-03-07T00:36:54;10.20;71.50
84902;DHT22;75166;51.198;6.010;2024-03-07T00:39:21;10.20;71.50
84902;DHT22;75166;51.198;6.010;2024-03-07T00:41:47;10.20;71.70
84902;DHT22;75166;51.198;6.010;2024-03-07T00:44:13;10.20;71.70
84902;DHT22;75166;51.198;6.010;2024-03-07T00:46:38;10.10;71.70
84902;DHT22;75166;51.198;6.010;2024-03-07T00:49:04;10.20;71.70
84902;DHT22;75166;51.198;6.010;2024-03-07T00:51:30;10.10;71.70
84902;DHT22;75166;51.198;6.010;2024-03-07T00:53:57;10.10;71.70
84902;DHT22;75166;51.198;6.010;2024-03-07T00:56:23;10.10;71.70
84902;DHT22;75166;51.198;6.010;2024-03-07T00:58:49;10.10;71.70
84902;DHT22;75166;51.198;6.010;2024-03-07T01:01:15;10.10;71.80
84902;DHT22;75166;51.198;6.010;2024-03-07T01:03:43;10.10;72.00
84902;DHT22;75166;51.198;6.010;2024-03-07T01:06:08;10.00;71.90
84902;DHT22;75166;51.198;6.010;2024-03-07T01:08:37;10.00;71.90
84902;DHT22;75166;51.198;6.010;2024-03-07T01:11:04;10.00;71.90
84902;DHT22;75166;51.198;6.010;2024-03-07T01:13:41;10.10;71.90
84902;DHT22;75166;51.198;6.010;2024-03-07T01:16:07;10.00;71.80
84902;DHT22;75166;51.198;6.010;2024-03-07T01:18:33;10.00;71.80
84902;DHT22;75166;51.198;6.010;2024-03-07T01:21:03;10.00;71.80
84902;DHT22;75166;51.198;6.010;2024-03-07T01:23:28;10.00;71.90
84902;DHT22;75166;51.198;6.010;2024-03-07T01:25:58;10.00;72.00
84902;DHT22;75166;51.198;6.010;2024-03-07T01:28:25;9.90;72.00
84902;DHT22;75166;51.198;6.010;2024-03-07T01:30:51;9.90;72.00
84902;DHT22;75166;51.198;6.010;2024-03-07T01:33:21;9.90;71.90
84902;DHT22;75166;51.198;6.010;2024-03-07T01:35:47;10.00;71.90
84902;DHT22;75166;51.198;6.010;2024-03-07T01:38:13;10.00;71.90
84902;DHT22;75166;51.198;6.010;2024-03-07T01:40:40;9.90;71.90
84902;DHT22;75166;51.198;6.010;2024-03-07T01:43:07;9.90;71.90
84902;DHT22;75166;51.198;6.010;2024-03-07T01:45:32;9.90;72.00
84902;DHT22;75166;51.198;6.010;2024-03-07T01:47:58;9.90;72.20
84902;DHT22;75166;51.198;6.010;2024-03-07T01:50:24;9.80;72.10
84902;DHT22;75166;51.198;6.010;2024-03-07T01:52:50;9.80;72.10
84902;DHT22;75166;51.198;6.010;2024-03-07T01:55:17;9.80;72.00
84902;DHT22;75166;51.198;6.010;2024-03-07T01:57:44;9.80;72.00
84902;DHT22;75166;51.198;6.010;2024-03-07T02:00:11;9.90;72.00
84902;DHT22;75166;51.198;6.010;2024-03-07T02:02:37;9.80;72.00
84902;DHT22;75166;51.198;6.010;2024-03-07T02:05:03;9.80;72.00
84902;DHT22;75166;51.198;6.010;2024-03-07T02:07:29;9.80;72.20
84902;DHT22;75166;51.198;6.010;2024-03-07T02:10:05;9.70;72.20
84902;DHT22;75166;51.198;6.010;2024-03-07T02:12:31;9.70;72.20
84902;DHT22;75166;51.198;6.010;2024-03-07T02:14:57;9.70;72.20
84902;DHT22;75166;51.198;6.010;2024-03-07T02:17:26;9.70;72.10
84902;DHT22;75166;51.198;6.010;2024-03-07T02:19:52;9.70;72.00
84902;DHT22;75166;51.198;6.010;2024-03-07T02:22:19;9.70;72.00
84902;DHT22;75166;51.198;6.010;2024-03-07T02:24:45;9.70;72.10
84902;DHT22;75166;51.198;6.010;2024-03-07T02:27:13;9.70;72.20
84902;DHT22;75166;51.198;6.010;2024-03-07T02:29:42;9.60;72.40
84902;DHT22;75166;51.198;6.010;2024-03-07T02:32:08;9.60;72.40
84902;DHT22;75166;51.198;6.010;2024-03-07T02:34:35;9.60;72.40
84902;DHT22;75166;51.198;6.010;2024-03-07T02:37:01;9.60;72.30
84902;DHT22;75166;51.198;6.010;2024-03-07T02:39:26;9.60;72.20
84902;DHT22;75166;51.198;6.010;2024-03-07T02:41:52;9.60;72.10
84902;DHT22;75166;51.198;6.010;2024-03-07T02:44:18;9.60;72.10
84902;DHT22;75166;51.198;6.010;2024-03-07T02:46:45;9.60;72.20
84902;DHT22;75166;51.198;6.010;2024-03-07T02:49:10;9.60;72.40
84902;DHT22;75166;51.198;6.010;2024-03-07T02:51:36;9.50;72.50
84902;DHT22;75166;51.198;6.010;2024-03-07T02:54:02;9.50;72.60
84902;DHT22;75166;51.198;6.010;2024-03-07T02:56:31;9.50;72.40
84902;DHT22;75166;51.198;6.010;2024-03-07T02:58:57;9.50;72.40
84902;DHT22;75166;51.198;6.010;2024-03-07T03:01:22;9.50;72.30
84902;DHT22;75166;51.198;6.010;2024-03-07T03:03:48;9.50;72.30
84902;DHT22;75166;51.198;6.010;2024-03-07T03:06:14;9.50;72.20
84902;DHT22;75166;51.198;6.010;2024-03-07T03:08:40;9.50;72.40
84902;DHT22;75166;51.198;6.010;2024-03-07T03:11:05;9.50;72.50
84902;DHT22;75166;51.198;6.010;2024-03-07T03:13:37;9.40;72.70
84902;DHT22;75166;51.198;6.010;2024-03-07T03:16:04;9.40;72.70
84902;DHT22;75166;51.198;6.010;2024-03-07T03:18:32;9.40;72.60
84902;DHT22;75166;51.198;6.010;2024-03-07T03:20:59;9.40;72.50
84902;DHT22;75166;51.198;6.010;2024-03-07T03:23:25;9.40;72.50
84902;DHT22;75166;51.198;6.010;2024-03-07T03:25:50;9.40;72.30
84902;DHT22;75166;51.198;6.010;2024-03-07T03:28:16;9.40;72.40
84902;DHT22;75166;51.198;6.010;2024-03-07T03:30:44;9.40;72.50
84902;DHT22;75166;51.198;6.010;2024-03-07T03:33:10;9.40;72.50
84902;DHT22;75166;51.198;6.010;2024-03-07T03:35:36;9.30;72.80
84902;DHT22;75166;51.198;6.010;2024-03-07T03:38:02;9.30;72.70
84902;DHT22;75166;51.198;6.010;2024-03-07T03:40:28;9.30;72.70
84902;DHT22;75166;51.198;6.010;2024-03-07T03:42:54;9.40;72.70
84902;DHT22;75166;51.198;6.010;2024-03-07T03:45:20;9.30;72.50
84902;DHT22;75166;51.198;6.010;2024-03-07T03:47:46;9.30;72.50
84902;DHT22;75166;51.198;6.010;2024-03-07T03:50:12;9.30;72.50
84902;DHT22;75166;51.198;6.010;2024-03-07T03:52:39;9.30;72.70
84902;DHT22;75166;51.198;6.010;2024-03-07T03:55:06;9.20;72.80
84902;DHT22;75166;51.198;6.010;2024-03-07T03:57:32;9.20;73.00
84902;DHT22;75166;51.198;6.010;2024-03-07T04:00:02;9.20;73.00
84902;DHT22;75166;51.198;6.010;2024-03-07T04:02:44;9.20;72.90
84902;DHT22;75166;51.198;6.010;2024-03-07T04:05:13;9.20;72.90
84902;DHT22;75166;51.198;6.010;2024-03-07T04:07:40;9.20;72.70
84902;DHT22;75166;51.198;6.010;2024-03-07T04:10:08;9.20;72.70
84902;DHT22;75166;51.198;6.010;2024-03-07T04:12:38;9.20;72.70
84902;DHT22;75166;51.198;6.010;2024-03-07T04:15:08;9.20;72.80
84902;DHT22;75166;51.198;6.010;2024-03-07T04:17:34;9.10;72.90
84902;DHT22;75166;51.198;6.010;2024-03-07T04:20:04;9.10;73.00
84902;DHT22;75166;51.198;6.010;2024-03-07T04:22:36;9.10;72.90
84902;DHT22;75166;51.198;6.010;2024-03-07T04:25:05;9.10;72.90
84902;DHT22;75166;51.198;6.010;2024-03-07T04:27:32;9.10;72.90
84902;DHT22;75166;51.198;6.010;2024-03-07T04:29:59;9.10;72.70
84902;DHT22;75166;51.198;6.010;2024-03-07T04:32:28;9.10;72.70
84902;DHT22;75166;51.198;6.010;2024-03-07T04:34:54;9.10;72.70
84902;DHT22;75166;51.198;6.010;2024-03-07T04:37:22;9.00;72.80
84902;DHT22;75166;51.198;6.010;2024-03-07T04:39:48;9.00;73.00
84902;DHT22;75166;51.198;6.010;2024-03-07T04:42:14;9.00;73.10
84902;DHT22;75166;51.198;6.010;2024-03-07T04:44:41;9.00;73.00
84902;DHT22;75166;51.198;6.010;2024-03-07T04:47:06;9.00;73.00
84902;DHT22;75166;51.198;6.010;2024-03-07T04:49:33;9.00;73.00
84902;DHT22;75166;51.198;6.010;2024-03-07T04:52:00;9.00;72.90
84902;DHT22;75166;51.198;6.010;2024-03-07T04:54:27;9.00;72.80
84902;DHT22;75166;51.198;6.010;2024-03-07T04:56:54;9.00;72.90
84902;DHT22;75166;51.198;6.010;2024-03-07T04:59:20;9.00;73.00
84902;DHT22;75166;51.198;6.010;2024-03-07T05:01:47;8.90;73.10
84902;DHT22;75166;51.198;6.010;2024-03-07T05:04:14;8.90;73.20
84902;DHT22;75166;51.198;6.010;2024-03-07T05:06:40;8.90;73.20
84902;DHT22;75166;51.198;6.010;2024-03-07T05:09:07;8.90;73.20
84902;DHT22;75166;51.198;6.010;2024-03-07T05:11:34;8.90;73.10
84902;DHT22;75166;51.198;6.010;2024-03-07T05:14:00;8.90;73.00
84902;DHT22;75166;51.198;6.010;2024-03-07T05:16:27;8.90;72.90
84902;DHT22;75166;51.198;6.010;2024-03-07T05:18:53;8.90;73.00
84902;DHT22;75166;51.198;6.010;2024-03-07T05:21:20;8.90;73.10
84902;DHT22;75166;51.198;6.010;2024-03-07T05:24:06;8.80;73.20
84902;DHT22;75166;51.198;6.010;2024-03-07T05:26:36;8.80;73.40
84902;DHT22;75166;51.198;6.010;2024-03-07T05:29:09;8.80;73.40
84902;DHT22;75166;51.198;6.010;2024-03-07T05:31:36;8.80;73.30
84902;DHT22;75166;51.198;6.010;2024-03-07T05:34:03;8.80;73.20
84902;DHT22;75166;51.198;6.010;2024-03-07T05:36:32;8.80;73.00
84902;DHT22;75166;51.198;6.010;2024-03-07T05:38:58;8.90;73.00
84902;DHT22;75166;51.198;6.010;2024-03-07T05:41:34;8.80;73.00
84902;DHT22;75166;51.198;6.010;2024-03-07T05:44:00;8.80;73.20
84902;DHT22;75166;51.198;6.010;2024-03-07T05:46:25;8.70;73.20
84902;DHT22;75166;51.198;6.010;2024-03-07T05:48:51;8.70;73.40
84902;DHT22;75166;51.198;6.010;2024-03-07T05:51:22;8.70;73.40
84902;DHT22;75166;51.198;6.010;2024-03-07T05:53:48;8.70;73.30
84902;DHT22;75166;51.198;6.010;2024-03-07T05:56:14;8.80;73.20
84902;DHT22;75166;51.198;6.010;2024-03-07T05:58:40;8.80;73.00
84902;DHT22;75166;51.198;6.010;2024-03-07T06:01:05;8.70;72.90
84902;DHT22;75166;51.198;6.010;2024-03-07T06:03:36;8.70;73.10
84902;DHT22;75166;51.198;6.010;2024-03-07T06:06:02;8.70;73.20
84902;DHT22;75166;51.198;6.010;2024-03-07T06:08:27;8.60;73.40
84902;DHT22;75166;51.198;6.010;2024-03-07T06:10:53;8.60;73.40
84902;DHT22;75166;51.198;6.010;2024-03-07T06:13:19;8.60;73.40
84902;DHT22;75166;51.198;6.010;2024-03-07T06:15:46;8.60;73.30
84902;DHT22;75166;51.198;6.010;2024-03-07T06:18:12;8.70;73.20
84902;DHT22;75166;51.198;6.010;2024-03-07T06:20:43;8.70;73.10
84902;DHT22;75166;51.198;6.010;2024-03-07T06:23:09;8.70;73.10
84902;DHT22;75166;51.198;6.010;2024-03-07T06:25:37;8.60;73.10
84902;DHT22;75166;51.198;6.010;2024-03-07T06:28:12;8.60;73.30
84902;DHT22;75166;51.198;6.010;2024-03-07T06:30:39;8.50;73.40
84902;DHT22;75166;51.198;6.010;2024-03-07T06:33:05;8.50;73.50
84902;DHT22;75166;51.198;6.010;2024-03-07T06:35:32;8.50;73.40
84902;DHT22;75166;51.198;6.010;2024-03-07T06:38:00;8.50;73.40
84902;DHT22;75166;51.198;6.010;2024-03-07T06:40:26;8.50;73.30
84902;DHT22;75166;51.198;6.010;2024-03-07T06:42:51;8.50;73.20
84902;DHT22;75166;51.198;6.010;2024-03-07T06:45:18;8.60;73.40
84902;DHT22;75166;51.198;6.010;2024-03-07T06:47:44;8.50;73.40
84902;DHT22;75166;51.198;6.010;2024-03-07T06:50:10;8.50;73.50
84902;DHT22;75166;51.198;6.010;2024-03-07T06:52:40;8.40;73.60
84902;DHT22;75166;51.198;6.010;2024-03-07T06:55:06;8.40;73.70
84902;DHT22;75166;51.198;6.010;2024-03-07T06:57:33;8.40;73.60
84902;DHT22;75166;51.198;6.010;2024-03-07T07:00:02;8.50;73.60
84902;DHT22;75166;51.198;6.010;2024-03-07T07:02:39;8.50;73.50
84902;DHT22;75166;51.198;6.010;2024-03-07T07:05:07;8.50;73.90
84902;DHT22;75166;51.198;6.010;2024-03-07T07:07:39;8.50;73.40
84902;DHT22;75166;51.198;6.010;2024-03-07T07:10:08;8.40;73.40
84902;DHT22;75166;51.198;6.010;2024-03-07T07:12:37;8.40;73.60
84902;DHT22;75166;51.198;6.010;2024-03-07T07:15:03;8.40;73.80
84902;DHT22;75166;51.198;6.010;2024-03-07T07:17:29;8.40;73.80
84902;DHT22;75166;51.198;6.010;2024-03-07T07:19:57;8.40;73.80
84902;DHT22;75166;51.198;6.010;2024-03-07T07:22:23;8.40;73.80
84902;DHT22;75166;51.198;6.010;2024-03-07T07:24:48;8.40;73.60
84902;DHT22;75166;51.198;6.010;2024-03-07T07:27:15;8.40;73.60
84902;DHT22;75166;51.198;6.010;2024-03-07T07:29:41;8.40;73.60
84902;DHT22;75166;51.198;6.010;2024-03-07T07:32:07;8.40;73.70
84902;DHT22;75166;51.198;6.010;2024-03-07T07:34:33;8.30;73.90
84902;DHT22;75166;51.198;6.010;2024-03-07T07:36:59;8.30;74.10
84902;DHT22;75166;51.198;6.010;2024-03-07T07:39:24;8.30;74.10
84902;DHT22;75166;51.198;6.010;2024-03-07T07:41:50;8.30;74.10
84902;DHT22;75166;51.198;6.010;2024-03-07T07:44:16;8.30;74.10
84902;DHT22;75166;51.198;6.010;2024-03-07T07:46:41;8.30;74.00
84902;DHT22;75166;51.198;6.010;2024-03-07T07:49:07;8.40;74.70
84902;DHT22;75166;51.198;6.010;2024-03-07T07:51:33;8.30;73.80
84902;DHT22;75166;51.198;6.010;2024-03-07T07:53:58;8.30;74.70
84902;DHT22;75166;51.198;6.010;2024-03-07T07:56:25;8.30;74.10
84902;DHT22;75166;51.198;6.010;2024-03-07T07:58:53;8.30;74.30
84902;DHT22;75166;51.198;6.010;2024-03-07T08:01:19;8.30;74.40
84902;DHT22;75166;51.198;6.010;2024-03-07T08:03:45;8.30;74.30
84902;DHT22;75166;51.198;6.010;2024-03-07T08:06:11;8.30;74.30
84902;DHT22;75166;51.198;6.010;2024-03-07T08:08:36;8.30;74.30
84902;DHT22;75166;51.198;6.010;2024-03-07T08:11:02;8.30;74.30
84902;DHT22;75166;51.198;6.010;2024-03-07T08:13:31;8.30;74.10
84902;DHT22;75166;51.198;6.010;2024-03-07T08:15:56;8.30;74.10
84902;DHT22;75166;51.198;6.010;2024-03-07T08:18:22;8.30;74.30
84902;DHT22;75166;51.198;6.010;2024-03-07T08:20:48;8.30;74.30
84902;DHT22;75166;51.198;6.010;2024-03-07T08:23:14;8.20;74.60
84902;DHT22;75166;51.198;6.010;2024-03-07T08:25:40;8.20;74.50
84902;DHT22;75166;51.198;6.010;2024-03-07T08:28:06;8.30;74.60
84902;DHT22;75166;51.198;6.010;2024-03-07T08:30:32;8.30;74.50
84902;DHT22;75166;51.198;6.010;2024-03-07T08:32:58;8.30;74.50
84902;DHT22;75166;51.198;6.010;2024-03-07T08:35:24;8.30;74.40
84902;DHT22;75166;51.198;6.010;2024-03-07T08:37:54;8.30;74.50
84902;DHT22;75166;51.198;6.010;2024-03-07T08:40:27;8.30;74.60
84902;DHT22;75166;51.198;6.010;2024-03-07T08:42:56;8.30;74.60
84902;DHT22;75166;51.198;6.010;2024-03-07T08:45:26;8.30;75.00
84902;DHT22;75166;51.198;6.010;2024-03-07T08:47:53;8.30;74.70
84902;DHT22;75166;51.198;6.010;2024-03-07T08:50:23;8.30;74.70
84902;DHT22;75166;51.198;6.010;2024-03-07T08:52:49;8.40;74.70
84902;DHT22;75166;51.198;6.010;2024-03-07T08:55:16;8.40;74.50
84902;DHT22;75166;51.198;6.010;2024-03-07T08:57:43;8.40;74.50
84902;DHT22;75166;51.198;6.010;2024-03-07T09:00:12;8.40;74.50
84902;DHT22;75166;51.198;6.010;2024-03-07T09:02:48;8.40;74.50
84902;DHT22;75166;51.198;6.010;2024-03-07T09:05:16;8.30;74.60
84902;DHT22;75166;51.198;6.010;2024-03-07T09:07:41;8.30;74.70
84902;DHT22;75166;51.198;6.010;2024-03-07T09:10:07;8.40;74.70
84902;DHT22;75166;51.198;6.010;2024-03-07T09:12:34;8.40;74.60
84902;DHT22;75166;51.198;6.010;2024-03-07T09:15:00;8.40;74.50
84902;DHT22;75166;51.198;6.010;2024-03-07T09:17:25;8.40;74.40
84902;DHT22;75166;51.198;6.010;2024-03-07T09:19:52;8.40;74.40
84902;DHT22;75166;51.198;6.010;2024-03-07T09:22:17;8.40;74.40
84902;DHT22;75166;51.198;6.010;2024-03-07T09:24:43;8.40;75.30
84902;DHT22;75166;51.198;6.010;2024-03-07T09:27:09;8.40;74.60
84902;DHT22;75166;51.198;6.010;2024-03-07T09:29:34;8.40;74.60
84902;DHT22;75166;51.198;6.010;2024-03-07T09:32:00;8.50;74.50
84902;DHT22;75166;51.198;6.010;2024-03-07T09:34:27;8.50;74.30
84902;DHT22;75166;51.198;6.010;2024-03-07T09:36:53;8.50;74.20
84902;DHT22;75166;51.198;6.010;2024-03-07T09:39:19;8.60;74.20
84902;DHT22;75166;51.198;6.010;2024-03-07T09:41:45;8.50;74.00
84902;DHT22;75166;51.198;6.010;2024-03-07T09:44:18;8.60;74.20
84902;DHT22;75166;51.198;6.010;2024-03-07T09:46:54;8.50;75.00
84902;DHT22;75166;51.198;6.010;2024-03-07T09:49:20;8.60;74.30
84902;DHT22;75166;51.198;6.010;2024-03-07T09:51:47;8.60;74.40
84902;DHT22;75166;51.198;6.010;2024-03-07T09:54:13;8.60;74.30
84902;DHT22;75166;51.198;6.010;2024-03-07T09:56:41;8.60;74.10
84902;DHT22;75166;51.198;6.010;2024-03-07T09:59:11;8.60;74.10
84902;DHT22;75166;51.198;6.010;2024-03-07T10:01:38;8.70;74.00
84902;DHT22;75166;51.198;6.010;2024-03-07T10:04:06;8.70;73.90
84902;DHT22;75166;51.198;6.010;2024-03-07T10:06:41;8.70;73.90
84902;DHT22;75166;51.198;6.010;2024-03-07T10:09:07;8.70;73.80
84902;DHT22;75166;51.198;6.010;2024-03-07T10:11:33;8.70;73.80
84902;DHT22;75166;51.198;6.010;2024-03-07T10:14:00;8.70;73.80
84902;DHT22;75166;51.198;6.010;2024-03-07T10:16:25;8.80;73.60
84902;DHT22;75166;51.198;6.010;2024-03-07T10:18:51;8.80;73.40
84902;DHT22;75166;51.198;6.010;2024-03-07T10:21:20;8.90;73.20
84902;DHT22;75166;51.198;6.010;2024-03-07T10:23:46;8.90;73.10
84902;DHT22;75166;51.198;6.010;2024-03-07T10:26:12;8.90;72.90
84902;DHT22;75166;51.198;6.010;2024-03-07T10:28:38;8.90;72.70
84902;DHT22;75166;51.198;6.010;2024-03-07T10:31:04;8.90;72.70
84902;DHT22;75166;51.198;6.010;2024-03-07T10:33:37;8.90;72.70
84902;DHT22;75166;51.198;6.010;2024-03-07T10:36:03;8.90;72.80
84902;DHT22;75166;51.198;6.010;2024-03-07T10:38:28;8.90;72.60
84902;DHT22;75166;51.198;6.010;2024-03-07T10:40:55;9.00;72.20
84902;DHT22;75166;51.198;6.010;2024-03-07T10:43:22;9.00;72.00
84902;DHT22;75166;51.198;6.010;2024-03-07T10:45:50;9.00;72.10
84902;DHT22;75166;51.198;6.010;2024-03-07T10:48:24;9.10;71.50
84902;DHT22;75166;51.198;6.010;2024-03-07T10:51:22;9.10;71.30
84902;DHT22;75166;51.198;6.010;2024-03-07T10:54:01;9.10;71.40
84902;DHT22;75166;51.198;6.010;2024-03-07T10:59:37;9.10;71.10
84902;DHT22;75166;51.198;6.010;2024-03-07T11:02:24;9.20;71.30
84902;DHT22;75166;51.198;6.010;2024-03-07T11:04:53;9.20;70.90
84902;DHT22;75166;51.198;6.010;2024-03-07T11:07:20;9.20;70.90
84902;DHT22;75166;51.198;6.010;2024-03-07T11:09:49;9.30;70.70
84902;DHT22;75166;51.198;6.010;2024-03-07T11:12:19;9.30;70.80
84902;DHT22;75166;51.198;6.010;2024-03-07T11:14:47;9.30;70.70
84902;DHT22;75166;51.198;6.010;2024-03-07T11:17:15;9.30;70.70
84902;DHT22;75166;51.198;6.010;2024-03-07T11:19:41;9.30;70.70
84902;DHT22;75166;51.198;6.010;2024-03-07T11:22:08;9.40;70.60
84902;DHT22;75166;51.198;6.010;2024-03-07T11:24:41;9.40;71.10
84902;DHT22;75166;51.198;6.010;2024-03-07T11:27:09;9.40;70.10
84902;DHT22;75166;51.198;6.010;2024-03-07T11:29:49;9.40;70.10
84902;DHT22;75166;51.198;6.010;2024-03-07T11:32:19;9.40;69.70
84902;DHT22;75166;51.198;6.010;2024-03-07T11:34:47;9.50;69.60
84902;DHT22;75166;51.198;6.010;2024-03-07T11:37:42;9.50;69.70
84902;DHT22;75166;51.198;6.010;2024-03-07T11:43:03;9.50;69.20
84902;DHT22;75166;51.198;6.010;2024-03-07T11:45:32;9.50;69.40
84902;DHT22;75166;51.198;6.010;2024-03-07T11:48:17;9.50;69.40
84902;DHT22;75166;51.198;6.010;2024-03-07T11:50:46;9.50;69.10
84902;DHT22;75166;51.198;6.010;2024-03-07T11:53:12;9.60;69.20
84902;DHT22;75166;51.198;6.010;2024-03-07T11:55:39;9.60;69.10
84902;DHT22;75166;51.198;6.010;2024-03-07T11:58:18;9.70;69.50
84902;DHT22;75166;51.198;6.010;2024-03-07T12:00:47;9.70;69.10
84902;DHT22;75166;51.198;6.010;2024-03-07T12:03:15;9.80;69.20
84902;DHT22;75166;51.198;6.010;2024-03-07T12:05:43;9.80;69.00
84902;DHT22;75166;51.198;6.010;2024-03-07T12:08:10;9.90;68.70
84902;DHT22;75166;51.198;6.010;2024-03-07T12:10:40;10.00;68.70
84902;DHT22;75166;51.198;6.010;2024-03-07T12:13:10;10.10;68.60
84902;DHT22;75166;51.198;6.010;2024-03-07T12:15:37;10.20;68.20
84902;DHT22;75166;51.198;6.010;2024-03-07T12:18:04;10.20;68.30
84902;DHT22;75166;51.198;6.010;2024-03-07T12:20:38;10.20;68.30
84902;DHT22;75166;51.198;6.010;2024-03-07T12:23:05;10.30;68.20
84902;DHT22;75166;51.198;6.010;2024-03-07T12:25:33;10.30;68.20
84902;DHT22;75166;51.198;6.010;2024-03-07T12:28:06;10.40;68.00
84902;DHT22;75166;51.198;6.010;2024-03-07T12:30:47;10.40;67.70
84902;DHT22;75166;51.198;6.010;2024-03-07T12:33:13;10.50;67.50
84902;DHT22;75166;51.198;6.010;2024-03-07T12:35:53;10.60;67.10
84902;DHT22;75166;51.198;6.010;2024-03-07T12:38:19;10.70;67.00
84902;DHT22;75166;51.198;6.010;2024-03-07T12:40:47;10.70;67.10
84902;DHT22;75166;51.198;6.010;2024-03-07T12:43:19;10.70;67.00
84902;DHT22;75166;51.198;6.010;2024-03-07T12:45:50;10.70;67.20
84902;DHT22;75166;51.198;6.010;2024-03-07T12:48:20;10.70;67.00
84902;DHT22;75166;51.198;6.010;2024-03-07T12:50:47;10.70;66.90
84902;DHT22;75166;51.198;6.010;2024-03-07T12:53:19;10.70;66.70
84902;DHT22;75166;51.198;6.010;2024-03-07T12:55:45;10.80;66.70
84902;DHT22;75166;51.198;6.010;2024-03-07T12:58:12;10.80;66.70
84902;DHT22;75166;51.198;6.010;2024-03-07T13:00:41;10.80;66.70
84902;DHT22;75166;51.198;6.010;2024-03-07T13:03:10;11.00;66.80
84902;DHT22;75166;51.198;6.010;2024-03-07T13:05:39;10.80;66.40
84902;DHT22;75166;51.198;6.010;2024-03-07T13:08:06;10.80;66.20
84902;DHT22;75166;51.198;6.010;2024-03-07T13:10:38;10.80;66.20
84902;DHT22;75166;51.198;6.010;2024-03-07T13:13:03;10.80;66.20
84902;DHT22;75166;51.198;6.010;2024-03-07T13:15:30;10.80;66.30
84902;DHT22;75166;51.198;6.010;2024-03-07T13:17:56;10.80;66.30
84902;DHT22;75166;51.198;6.010;2024-03-07T13:20:21;10.90;66.30
84902;DHT22;75166;51.198;6.010;2024-03-07T13:22:51;10.80;66.40
84902;DHT22;75166;51.198;6.010;2024-03-07T13:25:23;10.90;66.70
84902;DHT22;75166;51.198;6.010;2024-03-07T13:27:57;10.90;66.60
84902;DHT22;75166;51.198;6.010;2024-03-07T13:30:25;10.90;66.70
84902;DHT22;75166;51.198;6.010;2024-03-07T13:32:57;10.90;66.90
84902;DHT22;75166;51.198;6.010;2024-03-07T13:35:24;10.90;66.90
84902;DHT22;75166;51.198;6.010;2024-03-07T13:37:52;11.00;66.90
84902;DHT22;75166;51.198;6.010;2024-03-07T13:40:26;11.10;66.60
84902;DHT22;75166;51.198;6.010;2024-03-07T13:42:59;11.20;66.70
84902;DHT22;75166;51.198;6.010;2024-03-07T13:45:30;11.20;66.50
84902;DHT22;75166;51.198;6.010;2024-03-07T13:48:05;11.30;66.30
84902;DHT22;75166;51.198;6.010;2024-03-07T13:50:33;11.30;67.00
84902;DHT22;75166;51.198;6.010;2024-03-07T13:53:00;11.40;66.00
84902;DHT22;75166;51.198;6.010;2024-03-07T14:01:59;11.40;65.60
84902;DHT22;75166;51.198;6.010;2024-03-07T14:08:05;11.40;65.10
84902;DHT22;75166;51.198;6.010;2024-03-07T14:16:43;11.50;65.40
84902;DHT22;75166;51.198;6.010;2024-03-07T14:29:20;11.70;65.80
84902;DHT22;75166;51.198;6.010;2024-03-07T14:31:48;11.70;65.40
84902;DHT22;75166;51.198;6.010;2024-03-07T14:37:02;11.70;65.20
84902;DHT22;75166;51.198;6.010;2024-03-07T14:39:29;11.70;65.00
84902;DHT22;75166;51.198;6.010;2024-03-07T14:42:00;11.70;65.00
84902;DHT22;75166;51.198;6.010;2024-03-07T14:44:27;11.70;64.90
84902;DHT22;75166;51.198;6.010;2024-03-07T14:47:03;11.70;64.80
84902;DHT22;75166;51.198;6.010;2024-03-07T14:49:33;11.70;65.00
84902;DHT22;75166;51.198;6.010;2024-03-07T14:51:59;11.70;64.70
84902;DHT22;75166;51.198;6.010;2024-03-07T14:54:26;11.70;64.70
84902;DHT22;75166;51.198;6.010;2024-03-07T14:56:52;11.70;64.70
84902;DHT22;75166;51.198;6.010;2024-03-07T14:59:18;11.70;64.60
84902;DHT22;75166;51.198;6.010;2024-03-07T15:01:44;11.70;64.60
84902;DHT22;75166;51.198;6.010;2024-03-07T15:04:10;11.70;64.30
84902;DHT22;75166;51.198;6.010;2024-03-07T15:06:38;11.70;64.40
84902;DHT22;75166;51.198;6.010;2024-03-07T15:09:05;11.70;64.50
84902;DHT22;75166;51.198;6.010;2024-03-07T15:11:36;11.70;64.50
84902;DHT22;75166;51.198;6.010;2024-03-07T15:14:08;11.70;64.50
84902;DHT22;75166;51.198;6.010;2024-03-07T15:16:39;11.70;64.30
84902;DHT22;75166;51.198;6.010;2024-03-07T15:19:05;11.70;64.30
84902;DHT22;75166;51.198;6.010;2024-03-07T15:21:32;11.80;64.50
84902;DHT22;75166;51.198;6.010;2024-03-07T15:23:58;11.70;64.40
84902;DHT22;75166;51.198;6.010;2024-03-07T15:26:25;11.70;64.40
84902;DHT22;75166;51.198;6.010;2024-03-07T15:28:52;11.70;64.50
84902;DHT22;75166;51.198;6.010;2024-03-07T15:31:19;11.70;64.50
84902;DHT22;75166;51.198;6.010;2024-03-07T15:33:48;11.70;64.30
84902;DHT22;75166;51.198;6.010;2024-03-07T15:36:19;11.70;64.50
84902;DHT22;75166;51.198;6.010;2024-03-07T15:38:47;11.70;64.50
84902;DHT22;75166;51.198;6.010;2024-03-07T15:41:13;11.70;64.50
84902;DHT22;75166;51.198;6.010;2024-03-07T15:43:39;11.70;64.40
84902;DHT22;75166;51.198;6.010;2024-03-07T15:46:08;11.70;64.50
84902;DHT22;75166;51.198;6.010;2024-03-07T15:48:37;11.70;64.60
84902;DHT22;75166;51.198;6.010;2024-03-07T15:51:03;11.70;64.70
84902;DHT22;75166;51.198;6.010;2024-03-07T15:53:30;11.70;64.90
84902;DHT22;75166;51.198;6.010;2024-03-07T15:56:02;11.70;64.70
84902;DHT22;75166;51.198;6.010;2024-03-07T15:58:28;11.70;64.70
84902;DHT22;75166;51.198;6.010;2024-03-07T16:00:54;11.70;64.90
84902;DHT22;75166;51.198;6.010;2024-03-07T16:03:19;11.60;64.80
84902;DHT22;75166;51.198;6.010;2024-03-07T16:05:48;11.60;64.70
84902;DHT22;75166;51.198;6.010;2024-03-07T16:08:15;11.60;64.90
84902;DHT22;75166;51.198;6.010;2024-03-07T16:10:43;11.60;65.80
84902;DHT22;75166;51.198;6.010;2024-03-07T16:13:12;11.60;65.00
84902;DHT22;75166;51.198;6.010;2024-03-07T16:15:40;11.60;64.90
84902;DHT22;75166;51.198;6.010;2024-03-07T16:18:06;11.80;65.10